createdAt,value
2022-12-11T00:00:34.355Z,1.60
2022-12-11T00:03:02.450Z,1.50
2022-12-11T00:05:30.523Z,1.30
2022-12-11T00:07:59.024Z,1.40
2022-12-11T00:10:27.628Z,1.40
2022-12-11T00:12:55.759Z,1.50
2022-12-11T00:15:25.426Z,1.50
2022-12-11T00:17:53.508Z,1.40
2022-12-11T00:20:21.778Z,1.40
2022-12-11T00:22:49.999Z,1.50
2022-12-11T00:25:18.282Z,1.60
2022-12-11T00:27:47.383Z,1.50
2022-12-11T00:30:15.733Z,1.40
2022-12-11T00:32:45.177Z,1.30
2022-12-11T00:35:13.578Z,1.20
2022-12-11T00:37:41.895Z,1.10
2022-12-11T00:40:11.321Z,1.10
2022-12-11T00:42:39.348Z,1.20
2022-12-11T00:45:08.535Z,1.10
2022-12-11T00:47:36.811Z,1.20
2022-12-11T00:50:07.459Z,1.30
2022-12-11T00:52:36.202Z,1.30
2022-12-11T00:55:04.705Z,1.30
2022-12-11T00:57:32.813Z,1.20
2022-12-11T01:00:00.923Z,1.20
2022-12-11T01:02:29.031Z,1.10
2022-12-11T01:05:02.918Z,1.20
2022-12-11T01:07:32.449Z,1.20
2022-12-11T01:10:18.074Z,1.30
2022-12-11T01:12:46.209Z,1.40
2022-12-11T01:15:14.438Z,1.40
2022-12-11T01:17:42.513Z,1.40
2022-12-11T01:21:07.310Z,1.40
2022-12-11T01:23:37.018Z,1.40
2022-12-11T01:26:09.660Z,1.40
2022-12-11T01:28:38.365Z,1.50
2022-12-11T01:31:10.321Z,1.50
2022-12-11T01:33:39.130Z,1.40
2022-12-11T01:36:10.102Z,1.40
2022-12-11T01:38:39.751Z,1.50
2022-12-11T01:41:08.754Z,1.40
2022-12-11T01:43:37.286Z,1.50
2022-12-11T01:46:05.615Z,1.50
2022-12-11T01:48:36.783Z,1.40
2022-12-11T01:51:08.995Z,1.40
2022-12-11T01:53:41.515Z,1.40
2022-12-11T01:56:10.187Z,1.20
2022-12-11T01:58:43.320Z,1.30
2022-12-11T02:01:13.368Z,1.40
2022-12-11T02:03:41.586Z,1.40
2022-12-11T02:06:35.015Z,1.40
2022-12-11T02:09:06.589Z,1.30
2022-12-11T02:11:47.376Z,1.40
2022-12-11T02:14:24.706Z,1.40
2022-12-11T02:17:00.062Z,1.30
2022-12-11T02:19:45.414Z,1.20
2022-12-11T02:22:23.253Z,1.20
2022-12-11T02:25:05.168Z,1.30
2022-12-11T02:27:39.939Z,1.40
2022-12-11T02:30:11.371Z,1.30
2022-12-11T02:32:45.305Z,1.20
2022-12-11T02:35:18.416Z,1.20
2022-12-11T02:37:49.825Z,1.20
2022-12-11T02:40:22.719Z,1.20
2022-12-11T02:42:53.363Z,1.20
2022-12-11T02:45:24.011Z,1.10
2022-12-11T02:47:53.692Z,1.00
2022-12-11T02:50:23.967Z,1.00
2022-12-11T02:52:55.881Z,1.00
2022-12-11T02:55:25.959Z,0.90
2022-12-11T02:58:00.255Z,0.90
2022-12-11T03:00:29.674Z,0.90
2022-12-11T03:02:58.458Z,0.90
2022-12-11T03:05:28.065Z,0.70
2022-12-11T03:07:56.393Z,0.70
2022-12-11T03:10:25.202Z,0.80
2022-12-11T03:12:55.946Z,0.80
2022-12-11T03:15:34.912Z,0.70
2022-12-11T03:18:10.874Z,0.70
2022-12-11T03:20:44.056Z,0.50
2022-12-11T03:23:21.151Z,0.40
2022-12-11T03:25:55.592Z,0.50
2022-12-11T03:28:30.407Z,0.50
2022-12-11T03:31:02.775Z,0.50
2022-12-11T03:33:36.766Z,0.60
2022-12-11T03:36:08.417Z,0.50
2022-12-11T03:38:42.717Z,0.40
2022-12-11T03:41:12.836Z,0.40
2022-12-11T03:43:41.649Z,0.50
2022-12-11T03:46:13.539Z,0.50
2022-12-11T03:48:44.780Z,0.30
2022-12-11T03:51:13.037Z,0.30
2022-12-11T03:53:41.148Z,0.30
2022-12-11T03:56:11.897Z,0.30
2022-12-11T03:58:40.219Z,0.30
2022-12-11T04:01:12.264Z,0.20
2022-12-11T04:03:40.540Z,0.30
2022-12-11T04:06:09.010Z,0.30
2022-12-11T04:08:37.041Z,0.40
2022-12-11T04:11:23.080Z,0.50
2022-12-11T04:14:11.279Z,0.60
2022-12-11T04:16:39.933Z,0.70
2022-12-11T04:19:25.146Z,0.50
2022-12-11T04:22:10.787Z,0.50
2022-12-11T04:24:38.924Z,0.70
2022-12-11T04:27:07.109Z,0.70
2022-12-11T04:29:35.119Z,0.80
2022-12-11T04:32:04.557Z,0.60
2022-12-11T04:34:32.688Z,0.60
2022-12-11T04:37:00.674Z,0.50
2022-12-11T04:39:28.708Z,0.40
2022-12-11T04:41:56.680Z,0.30
2022-12-11T04:44:24.751Z,0.30
2022-12-11T04:46:52.768Z,0.30
2022-12-11T04:49:22.196Z,0.20
2022-12-11T04:51:50.210Z,0.20
2022-12-11T04:54:18.234Z,0.30
2022-12-11T04:56:46.228Z,0.30
2022-12-11T04:59:14.797Z,0.30
2022-12-11T05:01:42.933Z,0.30
2022-12-11T05:04:10.961Z,0.20
2022-12-11T05:06:40.397Z,0.20
2022-12-11T05:09:11.651Z,0.10
2022-12-11T05:11:40.105Z,0.20
2022-12-11T05:14:08.144Z,0.20
2022-12-11T05:16:36.167Z,0.20
2022-12-11T05:19:04.260Z,0.20
2022-12-11T05:21:35.121Z,0.10
2022-12-11T05:24:05.244Z,0.10
2022-12-11T05:26:33.361Z,-0.10
2022-12-11T05:29:01.370Z,0.00
2022-12-11T05:31:29.570Z,0.00
2022-12-11T05:33:57.665Z,0.10
2022-12-11T05:36:27.531Z,-0.10
2022-12-11T05:38:56.076Z,-0.30
2022-12-11T05:41:27.550Z,-0.30
2022-12-11T05:43:56.171Z,-0.30
2022-12-11T05:46:26.335Z,-0.20
2022-12-11T05:48:58.352Z,-0.10
2022-12-11T05:51:27.072Z,-0.10
2022-12-11T05:53:56.795Z,-0.10
2022-12-11T05:56:27.987Z,-0.20
2022-12-11T05:58:56.952Z,-0.20
2022-12-11T06:01:26.939Z,0.00
2022-12-11T06:03:55.508Z,0.00
2022-12-11T06:06:24.476Z,0.10
2022-12-11T06:08:52.999Z,0.10
2022-12-11T06:11:24.196Z,0.20
2022-12-11T06:13:54.262Z,0.20
2022-12-11T06:16:23.155Z,0.00
2022-12-11T06:18:51.319Z,0.00
2022-12-11T06:21:22.117Z,0.10
2022-12-11T06:23:51.604Z,0.10
2022-12-11T06:26:20.787Z,0.10
2022-12-11T06:28:49.600Z,0.20
2022-12-11T06:31:19.323Z,0.30
2022-12-11T06:33:48.014Z,0.30
2022-12-11T06:36:17.951Z,0.30
2022-12-11T06:38:46.458Z,0.20
2022-12-11T06:41:14.915Z,0.20
2022-12-11T06:43:43.972Z,0.20
2022-12-11T06:46:14.197Z,0.20
2022-12-11T06:48:44.135Z,0.20
2022-12-11T06:51:14.129Z,0.30
2022-12-11T06:53:42.742Z,0.30
2022-12-11T06:56:12.846Z,0.10
2022-12-11T06:58:41.868Z,0.10
2022-12-11T07:01:16.641Z,0.00
2022-12-11T07:03:46.559Z,-0.10
2022-12-11T07:06:14.962Z,-0.10
2022-12-11T07:08:43.557Z,0.00
2022-12-11T07:11:13.647Z,0.00
2022-12-11T07:13:42.535Z,-0.10
2022-12-11T07:16:12.304Z,-0.20
2022-12-11T07:18:41.431Z,-0.20
2022-12-11T07:21:13.223Z,0.00
2022-12-11T07:23:41.995Z,-0.10
2022-12-11T07:26:11.989Z,-0.20
2022-12-11T07:28:40.293Z,-0.20
2022-12-11T07:31:09.027Z,-0.30
2022-12-11T07:33:37.209Z,-0.20
2022-12-11T07:36:07.000Z,-0.20
2022-12-11T07:38:37.129Z,-0.10
2022-12-11T07:41:06.766Z,0.00
2022-12-11T07:43:35.389Z,0.10
2022-12-11T07:46:04.618Z,0.20
2022-12-11T07:48:32.779Z,0.10
2022-12-11T07:51:10.053Z,0.10
2022-12-11T07:53:39.608Z,0.10
2022-12-11T07:56:08.414Z,-0.10
2022-12-11T07:58:38.834Z,-0.20
2022-12-11T08:01:07.420Z,-0.30
2022-12-11T08:03:35.485Z,-0.40
2022-12-11T08:06:03.591Z,-0.40
2022-12-11T08:08:31.726Z,-0.30
2022-12-11T08:11:03.677Z,-0.40
2022-12-11T08:13:31.934Z,-0.40
2022-12-11T08:16:00.044Z,-0.40
2022-12-11T08:18:28.067Z,-0.30
2022-12-11T08:20:56.055Z,-0.40
2022-12-11T08:23:24.063Z,-0.20
2022-12-11T08:25:52.151Z,-0.10
2022-12-11T08:28:21.512Z,-0.10
2022-12-11T08:30:49.519Z,0.00
2022-12-11T08:33:17.585Z,0.10
2022-12-11T08:35:46.375Z,0.00
2022-12-11T08:38:14.378Z,0.10
2022-12-11T08:40:42.552Z,0.00
2022-12-11T08:43:10.656Z,0.00
2022-12-11T08:45:40.831Z,-0.10
2022-12-11T08:48:08.901Z,-0.10
2022-12-11T08:50:38.126Z,0.00
2022-12-11T08:53:06.107Z,0.10
2022-12-11T08:55:34.104Z,0.30
2022-12-11T08:58:02.223Z,0.30
2022-12-11T09:00:30.239Z,0.10
2022-12-11T09:02:59.633Z,0.10
2022-12-11T09:05:27.631Z,0.20
2022-12-11T09:07:55.733Z,0.20
2022-12-11T09:10:23.905Z,0.30
2022-12-11T09:12:51.934Z,0.30
2022-12-11T09:15:20.161Z,0.30
2022-12-11T09:17:48.185Z,0.20
2022-12-11T09:20:17.753Z,0.20
2022-12-11T09:22:45.776Z,0.30
2022-12-11T09:25:13.976Z,0.40
2022-12-11T09:27:42.083Z,0.30
2022-12-11T09:30:10.801Z,0.40
2022-12-11T09:32:39.835Z,0.50
2022-12-11T09:35:09.873Z,0.60
2022-12-11T09:37:39.663Z,0.70
2022-12-11T09:40:10.780Z,0.60
2022-12-11T09:42:51.842Z,0.60
2022-12-11T09:45:20.394Z,0.70
2022-12-11T09:47:51.367Z,0.70
2022-12-11T09:50:25.208Z,0.70
2022-12-11T09:53:08.516Z,0.60
2022-12-11T09:55:44.420Z,0.50
2022-12-11T09:58:23.376Z,0.50
2022-12-11T10:00:56.676Z,0.50
2022-12-11T10:03:40.866Z,0.60
2022-12-11T10:06:17.217Z,0.60
2022-12-11T10:08:54.312Z,0.70
2022-12-11T10:11:41.995Z,0.60
2022-12-11T10:14:17.911Z,0.50
2022-12-11T10:16:49.241Z,0.30
2022-12-11T10:19:22.126Z,0.30
2022-12-11T10:21:52.460Z,0.30
2022-12-11T10:25:05.747Z,0.40
2022-12-11T10:27:19.866Z,0.40
2022-12-11T10:29:48.741Z,0.40
2022-12-11T10:32:24.941Z,0.30
2022-12-11T10:35:01.122Z,0.30
2022-12-11T10:37:29.347Z,0.20
2022-12-11T10:39:58.705Z,0.20
2022-12-11T10:42:26.808Z,0.30
2022-12-11T10:45:00.795Z,0.30
2022-12-11T10:47:31.199Z,0.50
2022-12-11T10:50:01.918Z,0.50
2022-12-11T10:52:34.250Z,0.50
2022-12-11T10:55:05.870Z,0.60
2022-12-11T10:57:37.045Z,0.70
2022-12-11T11:00:07.305Z,0.70
2022-12-11T11:02:38.060Z,0.70
2022-12-11T11:05:15.143Z,0.60
2022-12-11T11:07:43.438Z,0.40
2022-12-11T11:10:19.098Z,0.40
2022-12-11T11:12:49.368Z,0.50
2022-12-11T11:15:21.321Z,0.50
2022-12-11T11:17:55.545Z,0.50
2022-12-11T11:20:26.590Z,0.40
2022-12-11T11:22:57.080Z,0.40
2022-12-11T11:25:28.990Z,0.30
2022-12-11T11:27:59.046Z,0.20
2022-12-11T11:30:29.940Z,0.20
2022-12-11T11:33:00.795Z,0.20
2022-12-11T11:35:30.943Z,0.30
2022-12-11T11:38:05.149Z,0.30
2022-12-11T11:40:39.533Z,0.40
2022-12-11T11:43:17.407Z,0.40
2022-12-11T11:45:52.692Z,0.40
2022-12-11T11:48:34.892Z,0.40
2022-12-11T11:51:13.836Z,0.30
2022-12-11T11:53:42.114Z,0.40
2022-12-11T11:56:21.868Z,0.40
2022-12-11T11:58:59.271Z,0.40
2022-12-11T12:01:27.747Z,0.40
2022-12-11T12:03:56.503Z,0.40
2022-12-11T12:06:33.818Z,0.50
2022-12-11T12:09:14.579Z,0.40
2022-12-11T12:11:50.712Z,0.40
2022-12-11T12:17:21.336Z,0.50
2022-12-11T12:19:57.431Z,0.50
2022-12-11T12:22:43.947Z,0.40
2022-12-11T12:25:19.943Z,0.40
2022-12-11T12:27:57.773Z,0.30
2022-12-11T12:30:26.354Z,0.30
2022-12-11T12:33:06.845Z,0.40
2022-12-11T12:35:37.257Z,0.30
2022-12-11T12:38:11.588Z,0.40
2022-12-11T12:40:49.892Z,0.30
2022-12-11T12:43:48.264Z,0.20
2022-12-11T12:46:25.408Z,0.30
2022-12-11T12:48:55.685Z,0.30
2022-12-11T12:52:00.318Z,0.30
2022-12-11T12:54:30.705Z,0.30
2022-12-11T12:57:00.816Z,0.40
2022-12-11T12:59:30.235Z,0.30
2022-12-11T13:02:00.589Z,0.40
2022-12-11T13:07:30.729Z,0.40
2022-12-11T13:10:01.765Z,0.30
2022-12-11T13:12:40.719Z,0.30
2022-12-11T13:15:30.778Z,0.30
2022-12-11T13:17:59.241Z,0.20
2022-12-11T13:20:28.835Z,0.20
2022-12-11T13:23:18.978Z,0.20
2022-12-11T13:25:50.770Z,0.20
2022-12-11T13:28:25.703Z,0.30
2022-12-11T13:31:04.816Z,0.30
2022-12-11T13:33:34.492Z,0.30
2022-12-11T13:36:25.120Z,0.40
2022-12-11T13:38:56.419Z,0.40
2022-12-11T13:41:25.119Z,0.40
2022-12-11T13:43:54.269Z,0.30
2022-12-11T13:46:27.920Z,0.30
2022-12-11T13:49:00.955Z,0.30
2022-12-11T13:51:31.531Z,0.30
2022-12-11T13:54:09.780Z,0.30
2022-12-11T13:56:39.564Z,0.30
2022-12-11T13:59:19.456Z,0.40
2022-12-11T14:01:49.126Z,0.40
2022-12-11T14:04:20.812Z,0.40
2022-12-11T14:06:49.203Z,0.40
2022-12-11T14:09:21.125Z,0.30
2022-12-11T14:11:55.063Z,0.20
2022-12-11T14:14:30.026Z,0.20
2022-12-11T14:16:59.707Z,0.20
2022-12-11T14:19:28.555Z,0.10
2022-12-11T14:22:01.039Z,0.10
2022-12-11T14:24:30.355Z,0.10
2022-12-11T14:26:58.731Z,0.10
2022-12-11T14:29:29.743Z,0.10
2022-12-11T14:32:03.626Z,0.10
2022-12-11T14:34:36.198Z,0.20
2022-12-11T14:37:06.982Z,0.30
2022-12-11T14:39:39.071Z,0.40
2022-12-11T14:42:12.795Z,0.40
2022-12-11T14:44:49.477Z,0.30
2022-12-11T14:47:21.988Z,0.10
2022-12-11T14:49:56.449Z,0.00
2022-12-11T14:52:28.794Z,-0.10
2022-12-11T14:55:04.733Z,-0.20
2022-12-11T14:57:34.567Z,-0.10
2022-12-11T15:00:04.116Z,-0.10
2022-12-11T15:02:35.666Z,-0.10
2022-12-11T15:05:20.317Z,-0.10
2022-12-11T15:07:58.181Z,0.00
2022-12-11T15:10:32.515Z,-0.10
2022-12-11T15:13:01.153Z,0.00
2022-12-11T15:15:31.123Z,0.00
2022-12-11T15:18:08.749Z,0.00
2022-12-11T15:20:37.005Z,0.10
2022-12-11T15:23:05.071Z,0.10
2022-12-11T15:25:33.069Z,0.20
2022-12-11T15:28:02.185Z,0.20
2022-12-11T15:30:34.016Z,0.20
2022-12-11T15:33:22.266Z,0.20
2022-12-11T15:36:08.378Z,0.20
2022-12-11T15:38:39.568Z,0.20
2022-12-11T15:41:12.699Z,0.20
2022-12-11T15:43:40.823Z,0.10
2022-12-11T15:46:09.062Z,0.10
2022-12-11T15:48:38.502Z,0.10
2022-12-11T15:51:06.902Z,0.20
2022-12-11T15:53:34.938Z,0.20
2022-12-11T15:56:03.111Z,0.20
2022-12-11T15:58:31.668Z,0.20
2022-12-11T16:00:59.988Z,0.20
2022-12-11T16:03:28.025Z,0.00
2022-12-11T16:05:57.803Z,-0.10
2022-12-11T16:08:26.107Z,-0.10
2022-12-11T16:10:56.121Z,-0.20
2022-12-11T16:13:24.532Z,-0.20
2022-12-11T16:15:53.857Z,-0.10
2022-12-11T16:18:23.735Z,0.00
2022-12-11T16:20:52.902Z,0.00
2022-12-11T16:23:22.857Z,-0.20
2022-12-11T16:25:51.419Z,-0.20
2022-12-11T16:28:21.575Z,-0.30
2022-12-11T16:30:49.937Z,-0.40
2022-12-11T16:33:18.448Z,-0.40
2022-12-11T16:35:46.487Z,-0.40
2022-12-11T16:38:14.568Z,-0.40
2022-12-11T16:40:44.168Z,-0.40
2022-12-11T16:43:12.210Z,-0.50
2022-12-11T16:45:40.913Z,-0.40
2022-12-11T16:48:08.992Z,-0.40
2022-12-11T16:50:37.351Z,-0.30
2022-12-11T16:53:05.464Z,-0.40
2022-12-11T16:55:33.534Z,-0.30
2022-12-11T16:58:03.112Z,-0.20
2022-12-11T17:00:31.270Z,-0.20
2022-12-11T17:02:59.402Z,-0.30
2022-12-11T17:05:27.617Z,-0.40
2022-12-11T17:07:55.694Z,-0.20
2022-12-11T17:10:23.727Z,-0.20
2022-12-11T17:12:51.853Z,-0.20
2022-12-11T17:15:21.369Z,-0.30
2022-12-11T17:17:49.345Z,-0.30
2022-12-11T17:20:18.203Z,-0.30
2022-12-11T17:22:46.491Z,-0.40
2022-12-11T17:25:16.629Z,-0.40
2022-12-11T17:27:44.906Z,-0.40
2022-12-11T17:30:14.305Z,-0.30
2022-12-11T17:32:43.814Z,-0.40
2022-12-11T17:35:12.153Z,-0.40
2022-12-11T17:37:40.347Z,-0.30
2022-12-11T17:40:09.563Z,-0.30
2022-12-11T17:42:37.621Z,-0.30
2022-12-11T17:45:06.541Z,-0.40
2022-12-11T17:47:34.670Z,-0.30
2022-12-11T17:50:04.418Z,-0.30
2022-12-11T17:52:35.634Z,-0.30
2022-12-11T17:55:05.748Z,-0.30
2022-12-11T17:57:34.574Z,-0.20
2022-12-11T18:00:02.711Z,-0.50
2022-12-11T18:02:30.724Z,-0.50
2022-12-11T18:04:58.773Z,-0.50
2022-12-11T18:07:28.455Z,-0.50
2022-12-11T18:09:56.498Z,-0.60
2022-12-11T18:12:24.569Z,-0.50
2022-12-11T18:14:52.666Z,-0.50
2022-12-11T18:17:20.802Z,-0.50
2022-12-11T18:19:48.888Z,-0.40
2022-12-11T18:22:16.906Z,-0.50
2022-12-11T18:24:46.619Z,-0.40
2022-12-11T18:27:15.160Z,-0.40
2022-12-11T18:29:43.259Z,-0.50
2022-12-11T18:32:11.391Z,-0.50
2022-12-11T18:34:39.466Z,-0.50
2022-12-11T18:37:08.358Z,-0.40
2022-12-11T18:39:36.388Z,-0.30
2022-12-11T18:42:31.673Z,-0.40
2022-12-11T18:44:53.955Z,-0.40
2022-12-11T18:47:22.020Z,-0.40
2022-12-11T18:49:50.269Z,-0.40
2022-12-11T18:52:18.586Z,-0.60
2022-12-11T18:54:47.338Z,-0.70
2022-12-11T18:57:16.883Z,-0.70
2022-12-11T18:59:45.213Z,-0.70
2022-12-11T19:02:13.652Z,-0.60
2022-12-11T19:04:41.749Z,-0.60
2022-12-11T19:07:09.779Z,-0.50
2022-12-11T19:09:38.831Z,-0.50
2022-12-11T19:12:08.127Z,-0.40
2022-12-11T19:14:37.590Z,-0.50
2022-12-11T19:17:05.657Z,-0.40
2022-12-11T19:19:34.126Z,-0.40
2022-12-11T19:22:02.219Z,-0.30
2022-12-11T19:24:30.364Z,-0.20
2022-12-11T19:26:58.682Z,-0.20
2022-12-11T19:29:28.711Z,-0.20
2022-12-11T19:31:58.222Z,-0.30
2022-12-11T19:34:26.566Z,-0.40
2022-12-11T19:36:54.782Z,-0.50
2022-12-11T19:39:22.924Z,-0.40
2022-12-11T19:41:51.444Z,-0.50
2022-12-11T19:44:19.626Z,-0.50
2022-12-11T19:46:47.864Z,-0.40
2022-12-11T19:49:17.409Z,-0.30
2022-12-11T19:51:45.766Z,-0.30
2022-12-11T19:54:16.685Z,-0.20
2022-12-11T19:56:45.475Z,-0.20
2022-12-11T19:59:16.678Z,-0.10
2022-12-11T20:01:47.981Z,-0.20
2022-12-11T20:04:18.876Z,-0.20
2022-12-11T20:06:48.019Z,-0.20
2022-12-11T20:09:16.884Z,-0.30
2022-12-11T20:11:47.319Z,-0.40
2022-12-11T20:14:20.827Z,-0.50
2022-12-11T20:19:38.564Z,-0.40
2022-12-11T20:22:06.670Z,-0.30
2022-12-11T20:24:34.899Z,-0.20
2022-12-11T20:27:02.979Z,-0.20
2022-12-11T20:29:31.095Z,-0.40
2022-12-11T20:32:00.471Z,-0.30
2022-12-11T20:34:29.366Z,-0.30
2022-12-11T20:37:00.276Z,-0.30
2022-12-11T20:39:29.081Z,-0.30
2022-12-11T20:41:57.135Z,-0.30
2022-12-11T20:44:25.153Z,-0.30
2022-12-11T20:46:53.206Z,-0.40
2022-12-11T20:49:21.421Z,-0.40
2022-12-11T20:51:49.449Z,-0.50
2022-12-11T20:54:19.083Z,-0.40
2022-12-11T20:56:47.678Z,-0.40
2022-12-11T20:59:15.747Z,-0.30
2022-12-11T21:01:44.341Z,-0.30
2022-12-11T21:04:12.873Z,-0.30
2022-12-11T21:06:42.208Z,-0.30
2022-12-11T21:09:13.517Z,-0.10
2022-12-11T21:11:43.287Z,-0.10
2022-12-11T21:14:11.565Z,-0.10
2022-12-11T21:16:39.846Z,-0.10
2022-12-11T21:19:11.317Z,-0.10
2022-12-11T21:21:46.790Z,0.00
2022-12-11T21:24:16.751Z,0.00
2022-12-11T21:26:46.565Z,0.10
2022-12-11T21:29:17.751Z,0.10
2022-12-11T21:31:46.164Z,0.00
2022-12-11T21:34:14.267Z,0.00
2022-12-11T21:36:42.302Z,0.00
2022-12-11T21:39:12.157Z,-0.10
2022-12-11T21:41:40.612Z,0.00
2022-12-11T21:46:59.584Z,-0.20
2022-12-11T21:49:27.619Z,-0.10
2022-12-11T21:51:55.605Z,0.00
2022-12-11T21:54:23.839Z,0.00
2022-12-11T21:56:51.873Z,-0.10
2022-12-11T21:59:21.289Z,-0.10
2022-12-11T22:01:49.346Z,0.00
2022-12-11T22:04:17.619Z,0.10
2022-12-11T22:06:47.096Z,0.00
2022-12-11T22:09:15.915Z,0.10
2022-12-11T22:11:45.904Z,0.00
2022-12-11T22:14:14.863Z,0.00
2022-12-11T22:16:45.726Z,0.00
2022-12-11T22:19:13.854Z,-0.10
2022-12-11T22:21:42.122Z,0.00
2022-12-11T22:24:10.461Z,0.00
2022-12-11T22:26:38.525Z,0.00
2022-12-11T22:29:06.497Z,0.10
2022-12-11T22:31:34.688Z,0.10
2022-12-11T22:34:04.081Z,0.00
2022-12-11T22:36:32.118Z,0.00
2022-12-11T22:39:01.615Z,-0.10
2022-12-11T22:41:32.221Z,-0.10
2022-12-11T22:44:01.074Z,-0.10
2022-12-11T22:46:31.353Z,-0.10
2022-12-11T22:48:59.530Z,-0.10
2022-12-11T22:51:28.975Z,-0.10
2022-12-11T22:53:56.994Z,0.00
2022-12-11T22:56:25.234Z,-0.10
2022-12-11T22:58:53.292Z,0.00
2022-12-11T23:01:23.725Z,0.00
2022-12-11T23:03:52.306Z,0.00
2022-12-11T23:06:24.756Z,0.10
2022-12-11T23:08:55.247Z,0.10
2022-12-11T23:11:26.099Z,0.00
2022-12-11T23:13:54.594Z,0.00
2022-12-11T23:16:23.523Z,-0.10
2022-12-11T23:18:51.988Z,-0.10
2022-12-11T23:21:20.177Z,-0.30
2022-12-11T23:23:48.355Z,-0.30
2022-12-11T23:26:19.175Z,-0.20
2022-12-11T23:28:48.149Z,-0.20
2022-12-11T23:31:17.056Z,-0.20
2022-12-11T23:33:45.144Z,-0.10
2022-12-11T23:36:13.740Z,-0.10
2022-12-11T23:38:42.251Z,0.00
2022-12-11T23:41:13.397Z,0.00
2022-12-11T23:43:43.202Z,0.00
2022-12-11T23:46:14.161Z,0.00
2022-12-11T23:48:42.280Z,0.10
2022-12-11T23:51:14.103Z,0.00
2022-12-11T23:53:42.457Z,-0.10
2022-12-11T23:56:13.385Z,-0.10
2022-12-11T23:58:43.341Z,-0.20
